createdAt,value
2022-10-20T00:00:33.909Z,3.90
2022-10-20T00:03:00.669Z,3.80
2022-10-20T00:05:27.428Z,3.80
2022-10-20T00:07:55.508Z,3.47
2022-10-20T00:10:22.243Z,4.03
2022-10-20T00:12:48.952Z,4.33
2022-10-20T00:15:15.704Z,3.47
2022-10-20T00:17:42.590Z,3.50
2022-10-20T00:20:10.578Z,3.90
2022-10-20T00:22:37.720Z,3.40
2022-10-20T00:25:06.671Z,3.20
2022-10-20T00:27:33.450Z,3.30
2022-10-20T00:30:00.227Z,3.00
2022-10-20T00:32:26.945Z,2.90
2022-10-20T00:34:53.661Z,3.07
2022-10-20T00:37:20.363Z,3.30
2022-10-20T00:39:47.100Z,3.23
2022-10-20T00:42:17.025Z,2.60
2022-10-20T00:44:52.873Z,2.30
2022-10-20T00:47:22.123Z,2.70
2022-10-20T00:49:49.973Z,3.30
2022-10-20T00:52:20.746Z,3.20
2022-10-20T00:54:48.451Z,3.00
2022-10-20T00:57:17.009Z,2.97
2022-10-20T00:59:44.344Z,2.40
2022-10-20T01:02:11.591Z,2.53
2022-10-20T01:04:38.841Z,3.03
2022-10-20T01:07:05.829Z,2.97
2022-10-20T01:09:33.149Z,2.93
2022-10-20T01:12:10.756Z,2.53
2022-10-20T01:14:48.191Z,2.60
2022-10-20T01:17:24.085Z,2.47
2022-10-20T01:20:25.243Z,2.90
2022-10-20T01:23:21.978Z,2.53
2022-10-20T01:26:08.945Z,2.97
2022-10-20T01:28:42.725Z,2.40
2022-10-20T01:31:19.996Z,2.63
2022-10-20T01:33:52.605Z,2.90
2022-10-20T01:36:27.296Z,2.90
2022-10-20T01:39:01.304Z,2.57
2022-10-20T01:41:32.249Z,2.47
2022-10-20T01:44:01.251Z,2.63
2022-10-20T01:46:28.916Z,2.53
2022-10-20T01:48:56.262Z,2.40
2022-10-20T01:51:22.978Z,2.53
2022-10-20T01:53:49.708Z,2.40
2022-10-20T01:56:20.527Z,3.00
2022-10-20T01:59:07.841Z,2.63
2022-10-20T02:01:57.211Z,2.73
2022-10-20T02:04:30.486Z,2.20
2022-10-20T02:07:02.019Z,2.50
2022-10-20T02:09:34.333Z,2.37
2022-10-20T02:12:05.335Z,2.47
2022-10-20T02:14:34.389Z,1.67
2022-10-20T02:17:05.401Z,2.13
2022-10-20T02:19:35.975Z,2.13
2022-10-20T02:22:04.241Z,2.43
2022-10-20T02:24:36.094Z,2.27
2022-10-20T02:27:07.952Z,2.13
2022-10-20T02:29:42.412Z,2.47
2022-10-20T02:32:11.638Z,2.70
2022-10-20T02:34:41.020Z,2.83
2022-10-20T02:37:09.459Z,2.10
2022-10-20T02:39:36.330Z,1.60
2022-10-20T02:42:03.235Z,2.03
2022-10-20T02:44:29.946Z,1.80
2022-10-20T02:46:58.132Z,1.73
2022-10-20T02:49:24.870Z,1.77
2022-10-20T02:51:51.825Z,2.30
2022-10-20T02:54:18.618Z,2.20
2022-10-20T02:56:45.373Z,2.30
2022-10-20T02:59:13.952Z,2.20
2022-10-20T03:01:41.121Z,2.37
2022-10-20T03:04:09.421Z,1.80
2022-10-20T03:06:36.385Z,2.20
2022-10-20T03:09:03.651Z,1.60
2022-10-20T03:11:30.875Z,2.43
2022-10-20T03:13:57.667Z,2.40
2022-10-20T03:16:24.485Z,1.53
2022-10-20T03:18:51.284Z,1.80
2022-10-20T03:21:19.776Z,2.20
2022-10-20T03:23:46.860Z,1.87
2022-10-20T03:26:13.823Z,1.57
2022-10-20T03:28:41.018Z,2.57
2022-10-20T03:31:08.607Z,2.37
2022-10-20T03:33:35.526Z,1.60
2022-10-20T03:36:02.300Z,2.40
2022-10-20T03:38:30.469Z,2.47
2022-10-20T03:40:57.234Z,1.60
2022-10-20T03:43:24.022Z,2.33
2022-10-20T03:45:50.912Z,1.83
2022-10-20T03:48:17.814Z,1.97
2022-10-20T03:50:44.521Z,1.80
2022-10-20T03:53:13.113Z,2.50
2022-10-20T03:55:41.164Z,3.30
2022-10-20T03:58:07.901Z,2.50
2022-10-20T04:00:34.653Z,3.27
2022-10-20T04:03:01.419Z,3.43
2022-10-20T04:05:28.275Z,3.00
2022-10-20T04:07:55.015Z,3.13
2022-10-20T04:10:21.946Z,3.07
2022-10-20T04:12:50.030Z,2.33
2022-10-20T04:15:17.040Z,3.07
2022-10-20T04:17:43.893Z,2.90
2022-10-20T04:20:10.897Z,3.60
2022-10-20T04:22:37.847Z,3.07
2022-10-20T04:25:05.619Z,3.80
2022-10-20T04:27:32.662Z,2.90
2022-10-20T04:30:01.070Z,3.87
2022-10-20T04:32:28.522Z,4.37
2022-10-20T04:34:55.281Z,3.10
2022-10-20T04:37:22.141Z,5.10
2022-10-20T04:39:48.939Z,3.40
2022-10-20T04:42:15.724Z,4.00
2022-10-20T04:44:42.555Z,3.57
2022-10-20T04:47:10.780Z,3.80
2022-10-20T04:49:37.579Z,2.63
2022-10-20T04:52:04.507Z,2.93
2022-10-20T04:54:31.263Z,2.87
2022-10-20T04:56:58.086Z,3.80
2022-10-20T04:59:24.809Z,3.20
2022-10-20T05:01:51.694Z,2.60
2022-10-20T05:04:19.925Z,3.23
2022-10-20T05:06:47.184Z,3.00
2022-10-20T05:09:14.838Z,3.60
2022-10-20T05:11:42.508Z,5.13
2022-10-20T05:14:09.419Z,4.50
2022-10-20T05:16:36.179Z,3.80
2022-10-20T05:19:03.348Z,3.13
2022-10-20T05:21:32.278Z,3.23
2022-10-20T05:24:00.959Z,3.07
2022-10-20T05:26:29.148Z,3.47
2022-10-20T05:28:55.973Z,3.27
2022-10-20T05:31:23.664Z,4.40
2022-10-20T05:33:51.999Z,3.97
2022-10-20T05:36:21.646Z,3.03
2022-10-20T05:38:50.559Z,3.73
2022-10-20T05:41:19.382Z,3.70
2022-10-20T05:43:48.461Z,3.80
2022-10-20T05:46:15.291Z,3.87
2022-10-20T05:48:43.232Z,3.73
2022-10-20T05:51:14.918Z,4.30
2022-10-20T05:53:43.286Z,4.23
2022-10-20T05:56:16.750Z,5.30
2022-10-20T05:58:44.236Z,3.27
2022-10-20T06:01:12.388Z,5.80
2022-10-20T06:03:39.216Z,3.87
2022-10-20T06:06:06.194Z,5.00
2022-10-20T06:08:34.041Z,6.70
2022-10-20T06:11:04.963Z,4.33
2022-10-20T06:13:33.402Z,4.50
2022-10-20T06:16:04.766Z,5.03
2022-10-20T06:18:32.322Z,3.60
2022-10-20T06:21:00.705Z,6.10
2022-10-20T06:23:27.566Z,4.47
2022-10-20T06:25:54.409Z,6.70
2022-10-20T06:28:21.240Z,6.30
2022-10-20T06:30:49.397Z,6.77
2022-10-20T06:33:16.144Z,7.00
2022-10-20T06:35:42.924Z,5.40
2022-10-20T06:38:10.116Z,7.97
2022-10-20T06:40:36.916Z,7.80
2022-10-20T06:43:03.823Z,6.30
2022-10-20T06:45:30.624Z,10.30
2022-10-20T06:47:58.781Z,8.20
2022-10-20T06:50:25.710Z,6.97
2022-10-20T06:52:52.544Z,8.80
2022-10-20T06:55:19.307Z,6.63
2022-10-20T06:57:46.611Z,4.70
2022-10-20T07:00:14.431Z,7.37
2022-10-20T07:02:41.237Z,5.67
2022-10-20T07:05:09.732Z,10.37
2022-10-20T07:10:03.460Z,8.60
2022-10-20T07:12:30.253Z,6.27
2022-10-20T07:14:57.122Z,7.17
2022-10-20T07:17:24.000Z,6.43
2022-10-20T07:19:50.849Z,5.77
2022-10-20T07:22:19.028Z,6.60
2022-10-20T07:24:45.821Z,6.33
2022-10-20T07:27:12.649Z,7.50
2022-10-20T07:29:39.592Z,8.60
2022-10-20T07:32:06.356Z,7.00
2022-10-20T07:34:33.116Z,6.60
2022-10-20T07:37:00.495Z,7.67
2022-10-20T07:39:28.764Z,7.10
2022-10-20T07:41:55.502Z,6.83
2022-10-20T07:44:22.390Z,7.27
2022-10-20T07:46:49.187Z,9.10
2022-10-20T07:52:02.807Z,8.50
2022-10-20T07:54:31.059Z,8.33
2022-10-20T07:56:57.821Z,8.13
2022-10-20T07:59:24.602Z,5.47
2022-10-20T08:01:54.616Z,8.90
2022-10-20T08:04:23.038Z,8.40
2022-10-20T08:06:49.858Z,7.97
2022-10-20T08:09:16.824Z,8.20
2022-10-20T08:11:45.994Z,8.30
2022-10-20T08:14:13.373Z,7.80
2022-10-20T08:16:52.474Z,8.27
2022-10-20T08:19:21.892Z,8.80
2022-10-20T08:21:52.784Z,9.77
2022-10-20T08:24:20.297Z,7.80
2022-10-20T08:26:52.814Z,9.20
2022-10-20T08:29:21.397Z,6.33
2022-10-20T08:31:49.220Z,7.93
2022-10-20T08:34:16.071Z,7.70
2022-10-20T08:36:43.064Z,8.90
2022-10-20T08:39:09.934Z,7.40
2022-10-20T08:42:02.825Z,7.37
2022-10-20T08:44:35.506Z,8.70
2022-10-20T08:47:05.253Z,8.53
2022-10-20T08:49:35.988Z,5.80
2022-10-20T08:52:04.232Z,6.30
2022-10-20T08:54:34.355Z,5.97
2022-10-20T08:57:02.141Z,8.40
2022-10-20T08:59:39.796Z,7.57
2022-10-20T09:02:18.409Z,3.57
2022-10-20T09:04:50.604Z,6.73
2022-10-20T09:07:25.213Z,8.97
2022-10-20T09:09:52.947Z,6.30
2022-10-20T09:12:21.425Z,7.20
2022-10-20T09:14:49.695Z,6.93
2022-10-20T09:17:18.375Z,7.47
2022-10-20T09:19:49.874Z,4.33
2022-10-20T09:22:19.783Z,7.43
2022-10-20T09:24:50.751Z,7.47
2022-10-20T09:27:23.707Z,7.00
2022-10-20T09:29:52.444Z,6.97
2022-10-20T09:32:45.470Z,6.97
2022-10-20T09:35:17.887Z,5.50
2022-10-20T09:37:50.539Z,6.70
2022-10-20T09:40:18.598Z,6.37
2022-10-20T09:42:52.782Z,7.00
2022-10-20T09:45:23.593Z,7.73
2022-10-20T09:47:53.553Z,6.07
2022-10-20T09:50:26.572Z,5.80
2022-10-20T09:52:55.409Z,6.37
2022-10-20T09:55:30.148Z,5.80
2022-10-20T09:57:59.854Z,6.43
2022-10-20T10:00:37.333Z,6.50
2022-10-20T10:03:19.473Z,6.00
2022-10-20T10:05:47.129Z,6.77
2022-10-20T10:08:16.689Z,5.57
2022-10-20T10:10:45.494Z,6.60
2022-10-20T10:13:24.802Z,6.93
2022-10-20T10:16:02.921Z,5.83
2022-10-20T10:18:30.406Z,6.20
2022-10-20T10:21:00.517Z,6.20
2022-10-20T10:23:31.569Z,5.03
2022-10-20T10:26:02.052Z,6.17
2022-10-20T10:28:36.523Z,6.00
2022-10-20T10:31:20.243Z,6.73
2022-10-20T10:33:48.446Z,6.47
2022-10-20T10:36:25.472Z,5.40
2022-10-20T10:38:52.678Z,6.90
2022-10-20T10:41:26.700Z,5.63
2022-10-20T10:44:00.316Z,5.70
2022-10-20T10:46:35.761Z,6.50
2022-10-20T10:49:33.858Z,6.60
2022-10-20T10:52:14.233Z,6.40
2022-10-20T10:54:56.334Z,5.57
2022-10-20T10:57:38.072Z,6.00
2022-10-20T11:00:15.433Z,5.70
2022-10-20T11:03:03.051Z,5.17
2022-10-20T11:06:02.468Z,6.90
2022-10-20T11:08:45.919Z,7.17
2022-10-20T11:11:25.058Z,6.50
2022-10-20T11:13:58.267Z,5.83
2022-10-20T11:16:33.593Z,6.10
2022-10-20T11:19:41.649Z,6.90
2022-10-20T11:22:23.385Z,5.80
2022-10-20T11:25:02.541Z,5.70
2022-10-20T11:28:14.389Z,6.20
2022-10-20T11:30:48.349Z,6.50
2022-10-20T11:33:18.770Z,7.43
2022-10-20T11:35:53.963Z,6.47
2022-10-20T11:38:28.141Z,5.90
2022-10-20T11:41:01.235Z,6.20
2022-10-20T11:43:36.477Z,6.03
2022-10-20T11:46:21.418Z,4.80
2022-10-20T11:48:51.278Z,5.57
2022-10-20T11:51:37.988Z,5.80
2022-10-20T11:54:26.046Z,6.00
2022-10-20T11:57:13.744Z,6.30
2022-10-20T12:00:04.764Z,6.23
2022-10-20T12:03:01.729Z,6.17
2022-10-20T12:05:45.218Z,4.50
2022-10-20T12:08:30.276Z,6.33
2022-10-20T12:11:05.876Z,4.90
2022-10-20T12:13:40.797Z,5.20
2022-10-20T12:16:07.848Z,4.63
2022-10-20T12:18:35.638Z,4.97
2022-10-20T12:21:04.443Z,4.43
2022-10-20T12:23:58.423Z,5.77
2022-10-20T12:27:00.568Z,4.80
2022-10-20T12:29:48.462Z,4.30
2022-10-20T12:32:25.854Z,3.60
2022-10-20T12:34:55.965Z,4.97
2022-10-20T12:37:28.490Z,4.93
2022-10-20T12:40:01.008Z,4.03
2022-10-20T12:42:30.870Z,4.93
2022-10-20T12:45:02.855Z,4.67
2022-10-20T12:47:32.107Z,4.50
2022-10-20T12:50:04.520Z,4.10
2022-10-20T12:52:34.319Z,4.47
2022-10-20T12:55:07.279Z,4.00
2022-10-20T12:57:36.806Z,3.23
2022-10-20T13:00:06.237Z,3.07
2022-10-20T13:02:47.060Z,3.83
2022-10-20T13:05:46.047Z,4.30
2022-10-20T13:08:31.620Z,3.90
2022-10-20T13:11:31.858Z,4.80
2022-10-20T13:14:13.791Z,4.57
2022-10-20T13:16:44.602Z,4.10
2022-10-20T13:19:17.948Z,4.60
2022-10-20T13:21:48.751Z,4.33
2022-10-20T13:24:22.305Z,3.90
2022-10-20T13:26:51.795Z,3.40
2022-10-20T13:29:24.537Z,3.97
2022-10-20T13:32:04.878Z,3.87
2022-10-20T13:34:41.088Z,3.40
2022-10-20T13:37:22.836Z,3.37
2022-10-20T13:39:58.166Z,3.50
2022-10-20T13:42:36.964Z,4.80
2022-10-20T13:45:14.685Z,4.10
2022-10-20T13:47:48.884Z,3.83
2022-10-20T13:50:20.161Z,3.70
2022-10-20T13:52:50.569Z,3.90
2022-10-20T13:55:21.441Z,4.57
2022-10-20T13:57:55.353Z,3.93
2022-10-20T14:00:26.107Z,4.00
2022-10-20T14:02:59.023Z,4.23
2022-10-20T14:05:27.219Z,3.80
2022-10-20T14:07:54.598Z,4.30
2022-10-20T14:10:24.921Z,3.23
2022-10-20T14:12:52.559Z,3.30
2022-10-20T14:15:26.241Z,3.40
2022-10-20T14:17:57.685Z,3.40
2022-10-20T14:20:25.355Z,3.87
2022-10-20T14:22:54.470Z,3.87
2022-10-20T14:25:22.196Z,3.23
2022-10-20T14:27:50.904Z,3.77
2022-10-20T14:30:18.547Z,5.23
2022-10-20T14:32:49.159Z,3.67
2022-10-20T14:35:22.253Z,3.63
2022-10-20T14:37:54.606Z,4.10
2022-10-20T14:40:23.468Z,4.03
2022-10-20T14:42:50.887Z,3.97
2022-10-20T14:45:20.368Z,3.50
2022-10-20T14:47:49.963Z,4.70
2022-10-20T14:50:23.047Z,3.50
2022-10-20T14:52:53.841Z,3.90
2022-10-20T14:55:35.554Z,3.43
2022-10-20T14:58:02.588Z,4.00
2022-10-20T15:00:33.095Z,4.00
2022-10-20T15:03:02.960Z,4.00
2022-10-20T15:05:39.379Z,4.60
2022-10-20T15:08:25.616Z,3.83
2022-10-20T15:10:52.945Z,4.07
2022-10-20T15:13:27.682Z,4.00
2022-10-20T15:15:56.510Z,4.47
2022-10-20T15:18:25.006Z,4.33
2022-10-20T15:20:52.362Z,3.73
2022-10-20T15:23:20.725Z,4.17
2022-10-20T15:25:50.935Z,4.97
2022-10-20T15:28:25.447Z,5.10
2022-10-20T15:30:52.522Z,5.93
2022-10-20T15:33:19.457Z,5.57
2022-10-20T15:35:47.562Z,5.37
2022-10-20T15:38:14.876Z,4.60
2022-10-20T15:40:41.871Z,4.13
2022-10-20T15:43:11.939Z,5.07
2022-10-20T15:45:41.126Z,5.10
2022-10-20T15:48:07.898Z,4.77
2022-10-20T15:50:34.902Z,5.13
2022-10-20T15:53:03.075Z,4.57
2022-10-20T15:55:32.647Z,4.63
2022-10-20T15:57:59.550Z,4.27
2022-10-20T16:00:28.063Z,5.27
2022-10-20T16:02:55.432Z,5.17
2022-10-20T16:05:23.907Z,4.47
2022-10-20T16:07:51.842Z,3.97
2022-10-20T16:10:21.397Z,3.73
2022-10-20T16:12:48.630Z,4.40
2022-10-20T16:15:15.509Z,4.97
2022-10-20T16:17:42.586Z,4.50
2022-10-20T16:20:10.683Z,4.40
2022-10-20T16:22:38.066Z,4.50
2022-10-20T16:25:08.540Z,4.80
2022-10-20T16:27:37.125Z,4.00
2022-10-20T16:30:05.548Z,4.53
2022-10-20T16:32:35.561Z,4.10
2022-10-20T16:35:03.882Z,4.80
2022-10-20T16:37:31.516Z,5.03
2022-10-20T16:40:00.302Z,4.63
2022-10-20T16:42:28.346Z,4.23
2022-10-20T16:44:57.323Z,4.53
2022-10-20T16:47:25.014Z,4.07
2022-10-20T16:49:52.162Z,4.73
2022-10-20T16:52:19.023Z,5.00
2022-10-20T16:54:45.823Z,4.67
2022-10-20T16:57:12.657Z,4.60
2022-10-20T16:59:39.563Z,5.67
2022-10-20T17:02:07.712Z,4.90
2022-10-20T17:04:34.486Z,3.87
2022-10-20T17:07:01.331Z,5.47
2022-10-20T17:09:28.412Z,4.53
2022-10-20T17:11:55.220Z,4.30
2022-10-20T17:14:22.234Z,3.93
2022-10-20T17:16:49.072Z,4.13
2022-10-20T17:19:17.436Z,4.87
2022-10-20T17:21:44.373Z,4.47
2022-10-20T17:24:12.627Z,4.70
2022-10-20T17:26:40.510Z,4.13
2022-10-20T17:29:07.754Z,4.20
2022-10-20T17:31:34.943Z,3.97
2022-10-20T17:34:02.292Z,4.43
2022-10-20T17:36:34.965Z,4.10
2022-10-20T17:39:06.448Z,4.70
2022-10-20T17:41:35.015Z,2.40
2022-10-20T17:44:02.109Z,4.90
2022-10-20T17:46:29.303Z,4.23
2022-10-20T17:48:56.080Z,3.50
2022-10-20T17:51:29.024Z,4.20
2022-10-20T17:54:00.157Z,3.60
2022-10-20T17:56:28.583Z,3.80
2022-10-20T17:58:56.622Z,4.93
2022-10-20T18:01:25.364Z,4.27
2022-10-20T18:03:55.630Z,4.50
2022-10-20T18:06:24.441Z,4.30
2022-10-20T18:08:53.600Z,3.33
2022-10-20T18:11:24.633Z,4.27
2022-10-20T18:13:51.792Z,4.87
2022-10-20T18:16:20.436Z,4.27
2022-10-20T18:18:47.884Z,4.30
2022-10-20T18:21:16.747Z,4.73
2022-10-20T18:23:44.089Z,5.20
2022-10-20T18:26:13.406Z,5.63
2022-10-20T18:28:44.401Z,4.57
2022-10-20T18:31:16.186Z,4.17
2022-10-20T18:33:43.098Z,4.90
2022-10-20T18:36:11.828Z,5.37
2022-10-20T18:38:40.833Z,4.70
2022-10-20T18:41:08.902Z,4.33
2022-10-20T18:43:36.267Z,4.47
2022-10-20T18:46:05.098Z,4.70
2022-10-20T18:48:32.636Z,4.40
2022-10-20T18:51:01.465Z,4.27
2022-10-20T18:53:29.431Z,4.80
2022-10-20T18:56:00.359Z,4.67
2022-10-20T18:58:27.505Z,5.10
2022-10-20T19:00:59.006Z,4.33
2022-10-20T19:03:27.808Z,4.47
2022-10-20T19:05:58.929Z,5.17
2022-10-20T19:08:25.715Z,4.47
2022-10-20T19:10:52.496Z,3.30
2022-10-20T19:13:19.355Z,4.57
2022-10-20T19:15:46.166Z,5.50
2022-10-20T19:18:12.912Z,4.90
2022-10-20T19:20:41.099Z,5.83
2022-10-20T19:23:07.815Z,5.37
2022-10-20T19:25:34.674Z,4.90
2022-10-20T19:28:01.424Z,5.47
2022-10-20T19:30:28.480Z,3.73
2022-10-20T19:32:55.211Z,4.80
2022-10-20T19:35:22.071Z,5.20
2022-10-20T19:37:50.172Z,6.00
2022-10-20T19:40:17.020Z,5.37
2022-10-20T19:42:43.800Z,5.13
2022-10-20T19:45:10.518Z,6.77
2022-10-20T19:47:37.292Z,6.00
2022-10-20T19:50:04.194Z,4.77
2022-10-20T19:52:30.963Z,6.20
2022-10-20T19:54:59.103Z,6.17
2022-10-20T19:57:25.817Z,5.77
2022-10-20T19:59:52.625Z,6.17
2022-10-20T20:02:19.359Z,5.40
2022-10-20T20:04:46.109Z,5.80
2022-10-20T20:07:13.137Z,6.03
2022-10-20T20:09:39.979Z,6.03
2022-10-20T20:12:08.116Z,6.60
2022-10-20T20:14:34.911Z,6.43
2022-10-20T20:17:01.646Z,5.57
2022-10-20T20:19:28.481Z,5.97
2022-10-20T20:21:55.230Z,5.67
2022-10-20T20:24:22.025Z,5.93
2022-10-20T20:26:48.731Z,6.80
2022-10-20T20:29:16.862Z,7.20
2022-10-20T20:31:43.677Z,6.30
2022-10-20T20:34:10.791Z,6.13
2022-10-20T20:36:37.589Z,7.50
2022-10-20T20:39:04.387Z,7.07
2022-10-20T20:41:31.151Z,6.30
2022-10-20T20:43:58.060Z,6.50
2022-10-20T20:46:27.782Z,6.73
2022-10-20T20:48:54.791Z,6.60
2022-10-20T20:51:21.798Z,7.70
2022-10-20T20:53:48.549Z,7.40
2022-10-20T20:56:18.115Z,6.37
2022-10-20T20:58:46.179Z,7.53
2022-10-20T21:01:15.069Z,5.63
2022-10-20T21:03:43.540Z,9.67
2022-10-20T21:06:12.197Z,6.47
2022-10-20T21:08:41.201Z,7.20
2022-10-20T21:11:10.045Z,8.00
2022-10-20T21:13:37.606Z,7.10
2022-10-20T21:16:09.098Z,8.33
2022-10-20T21:18:35.913Z,7.07
2022-10-20T21:21:09.210Z,7.90
2022-10-20T21:23:35.952Z,7.10
2022-10-20T21:26:02.651Z,7.93
2022-10-20T21:28:29.375Z,7.90
2022-10-20T21:30:58.778Z,7.30
2022-10-20T21:33:27.753Z,7.67
2022-10-20T21:35:59.726Z,5.80
2022-10-20T21:38:29.561Z,6.97
2022-10-20T21:41:01.698Z,6.83
2022-10-20T21:43:29.674Z,7.93
2022-10-20T21:45:56.402Z,7.77
2022-10-20T21:48:23.156Z,6.80
2022-10-20T21:50:49.932Z,7.70
2022-10-20T21:53:16.628Z,8.27
2022-10-20T21:55:44.734Z,7.70
2022-10-20T21:58:11.497Z,8.30
2022-10-20T22:00:38.327Z,7.30
2022-10-20T22:03:05.072Z,6.97
2022-10-20T22:05:31.757Z,6.80
2022-10-20T22:07:58.497Z,7.97
2022-10-20T22:10:25.263Z,7.20
2022-10-20T22:12:53.333Z,8.23
2022-10-20T22:15:20.015Z,6.43
2022-10-20T22:17:46.775Z,6.93
2022-10-20T22:20:13.471Z,7.73
2022-10-20T22:22:40.505Z,8.93
2022-10-20T22:25:08.379Z,9.50
2022-10-20T22:27:42.292Z,7.47
2022-10-20T22:30:11.751Z,6.63
2022-10-20T22:32:38.808Z,7.60
2022-10-20T22:35:07.065Z,8.87
2022-10-20T22:37:33.819Z,8.23
2022-10-20T22:40:00.612Z,6.90
2022-10-20T22:42:27.392Z,7.80
2022-10-20T22:44:54.127Z,7.83
2022-10-20T22:47:22.201Z,7.10
2022-10-20T22:49:48.894Z,7.33
2022-10-20T22:52:15.617Z,8.57
2022-10-20T22:54:42.332Z,7.77
2022-10-20T22:57:09.061Z,8.17
2022-10-20T22:59:36.028Z,9.43
2022-10-20T23:02:02.985Z,7.40
2022-10-20T23:04:31.079Z,7.60
2022-10-20T23:06:58.594Z,7.90
2022-10-20T23:09:25.488Z,7.63
2022-10-20T23:11:52.553Z,7.50
2022-10-20T23:14:19.340Z,8.63
2022-10-20T23:16:46.033Z,7.03
2022-10-20T23:19:13.130Z,8.73
2022-10-20T23:21:41.198Z,8.13
2022-10-20T23:24:08.085Z,8.73
2022-10-20T23:26:34.797Z,7.10
2022-10-20T23:29:01.514Z,7.50
2022-10-20T23:31:28.403Z,7.70
2022-10-20T23:33:55.818Z,7.33
2022-10-20T23:36:23.231Z,8.03
2022-10-20T23:38:51.380Z,8.40
2022-10-20T23:41:18.183Z,8.17
2022-10-20T23:43:45.038Z,6.73
2022-10-20T23:46:12.127Z,6.60
2022-10-20T23:48:39.153Z,9.00
2022-10-20T23:51:06.867Z,6.93
2022-10-20T23:53:34.557Z,7.13
2022-10-20T23:56:03.152Z,7.20
2022-10-20T23:58:29.892Z,7.00
